Time;durP1;ratioP1;P1;durP2;ratioP2;P2;SDS_P1;SDS_P2;PMS_P1;PMS_P2;Temp;Humidity;BMP_temperature;BMP_pressure;BME280_temperature;BME280_humidity;BME280_pressure;Samples;Min_cycle;Max_cycle;Signal;HPM_P1;HPM_P2
2023/01/11 00:00:27;;;;;;;5.40;2.13;;;;;;;2.77;100.00;94149.03;5050961;28;20036;-68
2023/01/11 00:02:56;;;;;;;6.75;1.70;;;;;;;2.70;100.00;94146.22;5051006;28;20062;-68
2023/01/11 00:05:23;;;;;;;5.72;1.95;;;;;;;2.63;100.00;94148.78;5050399;28;20045;-68
2023/01/11 00:07:50;;;;;;;7.33;1.70;;;;;;;2.60;100.00;94146.81;5051244;28;20067;-68
2023/01/11 00:10:17;;;;;;;5.45;2.05;;;;;;;2.77;100.00;94149.03;5050393;28;20047;-68
2023/01/11 00:12:44;;;;;;;8.48;3.40;;;;;;;2.73;100.00;94140.06;5050737;28;20130;-68
2023/01/11 00:15:11;;;;;;;6.03;2.05;;;;;;;2.85;100.00;94144.53;5032848;28;20056;-67
2023/01/11 00:17:38;;;;;;;5.75;1.70;;;;;;;2.82;100.00;94141.75;5050850;28;20041;-68
2023/01/11 00:20:06;;;;;;;6.40;1.80;;;;;;;2.87;100.00;94136.03;5050578;28;20370;-66
2023/01/11 00:22:32;;;;;;;6.38;2.33;;;;;;;2.85;100.00;94138.34;5049669;28;20106;-68
2023/01/11 00:24:59;;;;;;;5.72;1.88;;;;;;;2.84;100.00;94140.28;5050735;28;20116;-68
2023/01/11 00:27:26;;;;;;;5.28;2.00;;;;;;;2.85;100.00;94143.75;5031933;28;20045;-68
2023/01/11 00:29:52;;;;;;;5.18;2.05;;;;;;;2.79;100.00;94149.47;5032944;28;20398;-68
2023/01/11 00:32:19;;;;;;;3.63;1.80;;;;;;;2.87;100.00;94138.75;5049738;28;20049;-67
2023/01/11 00:34:46;;;;;;;5.25;1.65;;;;;;;2.82;100.00;94145.28;5050414;28;20057;-68
2023/01/11 00:37:12;;;;;;;7.68;2.20;;;;;;;2.79;100.00;94141.34;5049439;28;21290;-68
2023/01/11 00:39:39;;;;;;;7.32;1.80;;;;;;;2.75;100.00;94139.72;5050259;28;20045;-68
2023/01/11 00:47:59;;;;;;;5.85;1.60;;;;;;;2.76;100.00;94125.03;5038176;28;20166;-68
2023/01/11 00:50:29;;;;;;;4.05;1.70;;;;;;;2.72;100.00;94133.09;5049555;28;20361;-68
2023/01/11 00:52:57;;;;;;;5.35;1.70;;;;;;;2.76;100.00;94128.50;5050023;28;20071;-68
2023/01/11 00:55:25;;;;;;;4.15;1.65;;;;;;;2.75;100.00;94128.88;5049303;28;20470;-68
2023/01/11 00:57:52;;;;;;;6.73;1.80;;;;;;;2.82;100.00;94137.13;5050184;28;20049;-68
2023/01/11 01:00:20;;;;;;;4.88;1.73;;;;;;;2.82;100.00;94142.56;5049101;28;20044;-67
2023/01/11 01:02:47;;;;;;;5.88;1.80;;;;;;;2.77;100.00;94137.41;5050204;28;20398;-68
2023/01/11 01:05:16;;;;;;;6.22;1.65;;;;;;;2.75;100.00;94142.41;5048549;28;20043;-68
2023/01/11 01:07:43;;;;;;;5.88;1.77;;;;;;;2.63;100.00;94137.94;5032446;28;20047;-68
2023/01/11 01:10:12;;;;;;;7.20;2.07;;;;;;;2.64;100.00;94133.34;5049561;28;20040;-67
2023/01/11 01:15:24;;;;;;;6.57;2.60;;;;;;;2.67;100.00;94136.09;5036656;28;20504;-68
2023/01/11 01:17:54;;;;;;;8.38;2.00;;;;;;;2.59;100.00;94124.31;5032482;28;20048;-68
2023/01/11 01:20:22;;;;;;;5.57;2.05;;;;;;;2.58;100.00;94124.72;5031811;28;20061;-68
2023/01/11 01:22:50;;;;;;;4.47;1.97;;;;;;;2.63;100.00;94127.09;5049940;28;20570;-68
2023/01/11 01:25:17;;;;;;;4.47;2.10;;;;;;;2.62;100.00;94113.91;5031614;28;20143;-68
2023/01/11 01:27:43;;;;;;;4.38;2.05;;;;;;;2.50;100.00;94112.94;5049320;28;20063;-67
2023/01/11 01:30:11;;;;;;;5.93;2.33;;;;;;;2.60;100.00;94108.88;5048975;28;20053;-67
2023/01/11 01:32:38;;;;;;;7.18;2.60;;;;;;;2.61;100.00;94113.13;5049687;28;20064;-68
2023/01/11 01:35:06;;;;;;;4.73;1.90;;;;;;;2.60;100.00;94111.59;5049384;28;20088;-67
2023/01/11 01:37:32;;;;;;;5.15;2.30;;;;;;;2.63;100.00;94110.06;5049785;28;20045;-68
2023/01/11 01:39:59;;;;;;;4.70;2.30;;;;;;;2.57;100.00;94107.66;5032363;28;20098;-68
2023/01/11 01:42:26;;;;;;;6.07;2.20;;;;;;;2.57;100.00;94113.06;5049215;28;20090;-68
2023/01/11 01:44:57;;;;;;;4.60;2.15;;;;;;;2.55;100.00;94112.63;5050050;28;20049;-68
2023/01/11 01:47:42;;;;;;;6.47;1.97;;;;;;;2.60;100.00;94117.78;5049425;28;20401;-68
2023/01/11 01:50:24;;;;;;;4.80;2.25;;;;;;;2.53;100.00;94116.88;5049815;28;20072;-68
2023/01/11 01:52:59;;;;;;;4.90;2.15;;;;;;;2.60;100.00;94106.94;5055688;28;20132;-68
2023/01/11 01:55:30;;;;;;;6.90;2.10;;;;;;;2.58;100.00;94095.69;5052334;28;20051;-68
2023/01/11 01:58:00;;;;;;;7.93;2.40;;;;;;;2.58;100.00;94089.50;5050467;28;20049;-68
2023/01/11 02:00:27;;;;;;;5.23;2.10;;;;;;;2.60;100.00;94096.09;5048806;28;20041;-68
2023/01/11 02:02:57;;;;;;;6.22;2.15;;;;;;;2.61;100.00;94099.59;5049452;28;20041;-67
2023/01/11 02:05:24;;;;;;;5.00;2.20;;;;;;;2.58;100.00;94092.19;5049180;28;20259;-67
2023/01/11 02:07:55;;;;;;;8.77;3.53;;;;;;;2.65;100.00;94086.88;5049809;28;20521;-68
2023/01/11 02:10:22;;;;;;;5.82;2.42;;;;;;;2.61;100.00;94091.47;5049090;28;20053;-67
2023/01/11 02:12:55;;;;;;;4.47;1.80;;;;;;;2.64;100.00;94087.28;5051918;28;20056;-68
2023/01/11 02:15:23;;;;;;;4.97;2.05;;;;;;;2.67;100.00;94090.03;5052650;28;20044;-67
2023/01/11 02:17:50;;;;;;;4.95;2.47;;;;;;;2.66;100.00;94083.03;5052925;28;20044;-68
2023/01/11 02:20:47;;;;;;;5.95;2.13;;;;;;;2.71;100.00;94080.03;5051916;28;20132;-67
2023/01/11 02:23:35;;;;;;;5.85;2.30;;;;;;;2.71;100.00;94073.81;5052481;28;20056;-68
2023/01/11 02:26:19;;;;;;;5.33;2.00;;;;;;;2.78;100.00;94068.53;5052644;28;20037;-68
2023/01/11 02:29:15;;;;;;;6.70;2.05;;;;;;;2.73;100.00;94071.53;5051838;28;20931;-67
2023/01/11 02:31:44;;;;;;;4.88;2.45;;;;;;;2.73;100.00;94068.81;5034453;28;20780;-67
2023/01/11 02:34:20;;;;;;;4.53;2.13;;;;;;;2.77;100.00;94070.44;5052145;28;20078;-67
2023/01/11 02:37:16;;;;;;;5.30;2.13;;;;;;;2.84;100.00;94058.97;5052783;28;20051;-68
2023/01/11 02:40:01;;;;;;;4.93;2.03;;;;;;;2.93;100.00;94058.69;5051925;28;20573;-68
2023/01/11 02:45:59;;;;;;;4.90;2.05;;;;;;;2.84;100.00;94050.81;5051440;28;20590;-68
2023/01/11 02:48:50;;;;;;;7.43;2.20;;;;;;;2.70;100.00;94059.50;5051923;28;20053;-68
2023/01/11 02:51:50;;;;;;;5.90;2.35;;;;;;;2.56;100.00;94053.84;5052082;28;20037;-68
2023/01/11 02:54:18;;;;;;;5.03;2.00;;;;;;;2.70;100.00;94061.44;5014309;28;20435;-67
2023/01/11 02:56:49;;;;;;;5.88;2.28;;;;;;;2.81;100.00;94056.97;5052211;28;20041;-68
2023/01/11 02:59:27;;;;;;;6.10;2.30;;;;;;;2.79;100.00;94054.59;5051386;28;20064;-67
2023/01/11 03:01:54;;;;;;;5.85;2.30;;;;;;;2.90;100.00;94054.78;5052388;28;20045;-68
2023/01/11 03:04:42;;;;;;;3.78;1.92;;;;;;;2.94;100.00;94047.50;5051615;28;20504;-67
2023/01/11 03:07:23;;;;;;;4.10;2.10;;;;;;;2.99;100.00;94040.97;5051774;28;20101;-68
2023/01/11 03:10:27;;;;;;;4.50;2.13;;;;;;;3.05;100.00;94044.94;5051944;28;20493;-69
2023/01/11 03:13:32;;;;;;;4.97;2.20;;;;;;;3.12;100.00;94036.13;5051380;28;20825;-68
2023/01/11 03:16:05;;;;;;;6.05;2.10;;;;;;;3.11;100.00;94031.88;4969865;28;20685;-68
2023/01/11 03:18:50;;;;;;;4.28;2.10;;;;;;;3.04;100.00;94027.13;5037798;28;20699;-68
2023/01/11 03:21:25;;;;;;;8.87;2.83;;;;;;;3.08;100.00;94030.66;5051350;28;20477;-68
2023/01/11 03:24:27;;;;;;;6.97;2.20;;;;;;;3.10;100.00;94025.66;5051896;28;20053;-68
2023/01/11 03:26:54;;;;;;;5.75;2.35;;;;;;;3.11;100.00;94015.59;5050533;28;20445;-68
2023/01/11 03:29:51;;;;;;;6.78;2.30;;;;;;;3.02;100.00;94013.16;5051464;28;20045;-68
2023/01/11 03:32:43;;;;;;;6.35;2.60;;;;;;;2.96;100.00;94015.38;5051321;28;20072;-67
2023/01/11 03:35:23;;;;;;;7.53;2.57;;;;;;;2.93;100.00;94009.91;5050916;28;20079;-68
2023/01/11 03:37:57;;;;;;;7.65;2.90;;;;;;;2.79;100.00;94013.19;5040124;28;20057;-68
2023/01/11 03:40:31;;;;;;;5.32;2.50;;;;;;;2.79;100.00;94015.88;5033148;28;20447;-68
2023/01/11 03:43:12;;;;;;;8.80;2.78;;;;;;;2.75;100.00;94017.75;5051716;28;20041;-68
2023/01/11 03:45:45;;;;;;;8.38;3.28;;;;;;;2.77;100.00;94015.47;5050653;28;20067;-68
2023/01/11 03:48:16;;;;;;;8.63;2.90;;;;;;;2.72;100.00;94013.84;5050864;28;20497;-67
2023/01/11 03:50:46;;;;;;;6.35;2.88;;;;;;;2.65;100.00;94000.19;5051507;28;20048;-68
2023/01/11 03:53:18;;;;;;;6.55;2.70;;;;;;;2.63;100.00;94001.69;5050544;28;20094;-67
2023/01/11 03:55:48;;;;;;;6.80;3.00;;;;;;;2.62;100.00;93994.69;5051033;28;20053;-68
2023/01/11 03:58:15;;;;;;;7.32;2.92;;;;;;;2.63;100.00;93993.56;5050571;28;20049;-68
2023/01/11 04:00:42;;;;;;;6.53;3.00;;;;;;;2.65;100.00;94002.88;5050760;28;20048;-68
2023/01/11 04:03:11;;;;;;;5.95;2.72;;;;;;;2.70;100.00;94004.53;5050535;28;20401;-68
2023/01/11 04:05:42;;;;;;;9.30;3.72;;;;;;;2.68;100.00;93990.56;5051028;28;20640;-68
2023/01/11 04:08:10;;;;;;;8.65;3.40;;;;;;;2.69;100.00;93990.19;5050558;28;20041;-67
2023/01/11 04:10:37;;;;;;;9.00;3.45;;;;;;;2.79;100.00;93986.06;5050767;28;20041;-68
2023/01/11 04:13:03;;;;;;;8.73;3.47;;;;;;;2.80;100.00;93984.94;5050824;28;20067;-68
2023/01/11 04:15:33;;;;;;;8.85;4.20;;;;;;;2.85;100.00;93991.97;5049540;28;21641;-68
2023/01/11 04:18:04;;;;;;;12.68;5.20;;;;;;;2.90;100.00;93983.53;5050861;28;20049;-68
2023/01/11 04:20:36;;;;;;;8.93;3.70;;;;;;;2.91;100.00;93993.22;5049666;28;21501;-68
2023/01/11 04:23:04;;;;;;;7.25;3.67;;;;;;;2.95;100.00;93988.63;5050741;28;20043;-68
2023/01/11 04:25:31;;;;;;;7.17;3.20;;;;;;;2.98;100.00;93986.00;5049599;28;21572;-68
2023/01/11 04:27:58;;;;;;;8.48;3.10;;;;;;;2.97;100.00;93983.63;5050274;28;20053;-69
2023/01/11 04:30:24;;;;;;;6.80;3.78;;;;;;;2.99;100.00;93987.53;5049901;28;20056;-68
2023/01/11 04:32:51;;;;;;;7.03;3.08;;;;;;;3.01;100.00;93984.47;5050653;28;20452;-68
2023/01/11 04:35:18;;;;;;;7.47;3.55;;;;;;;3.05;100.00;93984.53;5049432;28;20060;-68
2023/01/11 04:37:45;;;;;;;5.70;2.90;;;;;;;3.06;100.00;93980.66;5050391;28;20055;-66
2023/01/11 04:40:12;;;;;;;5.78;2.78;;;;;;;3.05;100.00;93970.97;5049911;28;20049;-65
2023/01/11 04:42:38;;;;;;;6.45;2.80;;;;;;;3.12;100.00;93982.69;5050090;28;20045;-66
2023/01/11 04:45:06;;;;;;;6.80;2.60;;;;;;;3.24;100.00;93983.59;5049743;28;20521;-62
2023/01/11 04:47:32;;;;;;;7.63;2.97;;;;;;;3.26;100.00;93987.53;5049968;28;20051;-66
2023/01/11 04:49:59;;;;;;;6.37;2.57;;;;;;;3.28;100.00;93987.16;5049930;28;20056;-66
2023/01/11 04:52:26;;;;;;;7.22;3.47;;;;;;;3.31;100.00;93981.00;5049660;28;20048;-65
2023/01/11 04:54:53;;;;;;;6.55;2.90;;;;;;;3.26;100.00;93992.16;5050483;28;20049;-68
2023/01/11 04:57:19;;;;;;;6.03;2.47;;;;;;;3.30;100.00;93980.22;5031734;28;20079;-68
2023/01/11 04:59:47;;;;;;;7.40;2.53;;;;;;;3.24;100.00;93972.75;5049916;28;20044;-68
2023/01/11 05:02:15;;;;;;;6.07;2.87;;;;;;;3.19;100.00;93973.88;5049327;28;20053;-68
2023/01/11 05:04:42;;;;;;;8.95;3.03;;;;;;;3.13;100.00;93970.69;5050171;28;20075;-68
2023/01/11 05:07:10;;;;;;;5.93;2.88;;;;;;;3.10;100.00;93966.00;5049426;28;20045;-68
2023/01/11 05:09:36;;;;;;;7.75;3.00;;;;;;;3.14;100.00;93976.88;5050258;28;20045;-68
2023/01/11 05:12:03;;;;;;;8.98;3.05;;;;;;;3.07;100.00;93969.44;5049724;28;20110;-68
2023/01/11 05:14:30;;;;;;;8.37;3.17;;;;;;;3.06;100.00;93957.06;5049558;28;20045;-69
2023/01/11 05:16:57;;;;;;;7.90;3.70;;;;;;;3.07;100.00;93966.72;5032416;28;20045;-69
2023/01/11 05:19:25;;;;;;;7.38;3.60;;;;;;;3.02;100.00;93971.69;5049535;28;20047;-68
2023/01/11 05:21:51;;;;;;;6.80;3.40;;;;;;;2.97;100.00;93968.16;5049898;28;20045;-68
2023/01/11 05:24:18;;;;;;;6.88;3.08;;;;;;;2.98;100.00;93952.69;5049315;28;20049;-69
2023/01/11 05:26:47;;;;;;;10.87;3.10;;;;;;;3.04;100.00;93958.53;5049318;28;20040;-68
2023/01/11 05:29:19;;;;;;;9.32;3.45;;;;;;;2.94;100.00;93949.13;5049264;28;20052;-68
2023/01/11 05:31:46;;;;;;;7.68;3.50;;;;;;;3.03;100.00;93957.78;5049713;28;20071;-68
2023/01/11 05:34:14;;;;;;;8.52;3.55;;;;;;;3.15;100.00;93965.69;5050114;28;20037;-68
2023/01/11 05:36:42;;;;;;;8.50;3.75;;;;;;;3.13;100.00;93969.91;5053741;28;20063;-68
2023/01/11 05:39:10;;;;;;;10.70;4.00;;;;;;;3.23;100.00;93966.56;5054869;28;20045;-67
2023/01/11 05:41:37;;;;;;;10.32;5.00;;;;;;;3.21;100.00;93963.44;5053231;28;20037;-68
2023/01/11 05:46:50;;;;;;;8.70;3.83;;;;;;;3.34;100.00;93963.97;5049628;28;20417;-68
2023/01/11 05:49:16;;;;;;;10.73;4.97;;;;;;;3.40;100.00;93954.38;5035239;28;20045;-68
2023/01/11 05:51:43;;;;;;;9.43;4.17;;;;;;;3.35;100.00;93960.91;5053434;28;20103;-68
2023/01/11 05:54:12;;;;;;;8.43;3.95;;;;;;;3.45;100.00;93958.72;5052745;28;20041;-68
2023/01/11 05:56:41;;;;;;;8.98;5.18;;;;;;;3.38;100.00;93962.09;5053455;28;20479;-68
2023/01/11 05:59:08;;;;;;;7.45;4.00;;;;;;;3.40;100.00;93959.78;5053136;28;20045;-68
2023/01/11 06:01:35;;;;;;;6.88;3.38;;;;;;;3.23;100.00;93952.22;5053554;28;20070;-68
2023/01/11 06:04:02;;;;;;;7.20;4.00;;;;;;;3.15;100.00;93948.63;5053487;28;20534;-68
2023/01/11 06:06:28;;;;;;;8.05;3.28;;;;;;;3.09;100.00;93944.69;5052668;28;20055;-68
2023/01/11 06:08:55;;;;;;;7.07;3.47;;;;;;;3.11;100.00;93940.44;5052745;28;20150;-67
2023/01/11 06:11:22;;;;;;;6.78;3.28;;;;;;;3.09;100.00;93944.69;5034587;28;20061;-67
2023/01/11 06:13:49;;;;;;;10.63;3.72;;;;;;;3.14;100.00;93947.06;5051220;28;20045;-67
2023/01/11 06:16:18;;;;;;;8.73;4.67;;;;;;;3.14;100.00;93944.34;5052393;28;20048;-66
2023/01/11 06:18:48;;;;;;;10.25;5.10;;;;;;;3.12;100.00;93939.31;5052686;28;20053;-67
2023/01/11 06:21:16;;;;;;;9.23;4.75;;;;;;;3.13;100.00;93938.16;5034340;28;20047;-67
2023/01/11 06:23:45;;;;;;;8.95;4.65;;;;;;;3.22;100.00;93937.91;5052107;28;20548;-67
2023/01/11 06:26:15;;;;;;;7.32;3.92;;;;;;;3.20;100.00;93942.91;5052304;28;20100;-67
2023/01/11 06:28:42;;;;;;;8.07;3.40;;;;;;;3.17;100.00;93935.50;5034850;28;20041;-67
2023/01/11 06:31:10;;;;;;;11.13;4.43;;;;;;;3.07;100.00;93930.72;5039183;28;20065;-66
2023/01/11 06:33:37;;;;;;;8.05;3.85;;;;;;;3.16;100.00;93936.66;5052328;28;20051;-67
2023/01/11 06:36:07;;;;;;;7.75;3.50;;;;;;;3.28;100.00;93943.75;5052281;28;20052;-67
2023/01/11 06:38:34;;;;;;;6.65;3.40;;;;;;;3.28;100.00;93933.72;5051870;28;21415;-67
2023/01/11 06:41:02;;;;;;;11.00;4.60;;;;;;;3.22;100.00;93937.91;5037472;28;20041;-67
2023/01/11 06:43:30;;;;;;;11.45;4.50;;;;;;;3.30;100.00;93941.47;5052235;28;20049;-68
2023/01/11 06:45:57;;;;;;;8.13;3.53;;;;;;;3.32;100.00;93937.25;5052111;28;20037;-67
2023/01/11 06:48:26;;;;;;;7.53;3.60;;;;;;;3.25;100.00;93941.78;5051725;28;20049;-67
2023/01/11 06:50:55;;;;;;;9.48;4.20;;;;;;;3.33;100.00;93935.31;5050976;28;20053;-67
2023/01/11 06:53:23;;;;;;;6.87;3.17;;;;;;;3.38;100.00;93938.47;5051854;28;20048;-67
2023/01/11 06:55:53;;;;;;;7.55;3.20;;;;;;;3.40;100.00;93933.47;5051940;28;20498;-68
2023/01/11 06:58:22;;;;;;;7.60;3.28;;;;;;;3.28;100.00;93938.34;5051502;28;20044;-67
2023/01/11 07:00:50;;;;;;;8.82;3.50;;;;;;;3.25;100.00;93928.22;5052006;28;20063;-67
2023/01/11 07:03:19;;;;;;;8.15;3.40;;;;;;;3.15;100.00;93929.66;5051677;28;20056;-67
2023/01/11 07:05:46;;;;;;;7.33;3.60;;;;;;;3.08;100.00;93926.84;5052149;28;20071;-68
2023/01/11 07:08:12;;;;;;;8.27;3.10;;;;;;;3.03;100.00;93917.09;5051468;28;20048;-68
2023/01/11 07:10:39;;;;;;;7.22;2.83;;;;;;;3.04;100.00;93907.03;5051636;28;20037;-68
2023/01/11 07:13:06;;;;;;;6.60;2.65;;;;;;;2.97;100.00;93905.03;5051503;28;20098;-67
2023/01/11 07:15:33;;;;;;;6.93;2.90;;;;;;;2.97;100.00;93891.47;5051993;28;20410;-68
2023/01/11 07:18:00;;;;;;;7.50;2.87;;;;;;;2.92;100.00;93897.22;5051853;28;20049;-68
2023/01/11 07:20:28;;;;;;;8.32;2.50;;;;;;;2.89;100.00;93896.00;5051062;28;20045;-68
2023/01/11 07:22:59;;;;;;;6.10;2.80;;;;;;;2.90;100.00;93899.53;5051606;28;20045;-66
2023/01/11 07:25:27;;;;;;;7.68;2.92;;;;;;;2.89;100.00;93903.38;5051178;28;20048;-66
2023/01/11 07:27:56;;;;;;;11.27;3.30;;;;;;;2.91;100.00;93896.41;5045186;28;20046;-66
2023/01/11 07:30:23;;;;;;;9.03;3.23;;;;;;;2.97;100.00;93889.53;5033341;28;20049;-65
2023/01/11 07:32:50;;;;;;;7.00;2.58;;;;;;;3.05;100.00;93895.06;5050313;28;20043;-67
2023/01/11 07:35:16;;;;;;;4.78;2.00;;;;;;;3.12;100.00;93898.66;5050896;28;20040;-66
2023/01/11 07:37:44;;;;;;;7.10;2.78;;;;;;;3.24;100.00;93900.34;5051716;28;20113;-67
2023/01/11 07:40:12;;;;;;;4.75;2.00;;;;;;;3.35;100.00;93898.53;5049640;28;20051;-66
2023/01/11 07:45:23;;;;;;;6.25;2.05;;;;;;;3.46;100.00;93895.94;5050719;28;20493;-66
2023/01/11 07:48:05;;;;;;;5.63;2.20;;;;;;;3.52;100.00;93890.94;5033762;28;20491;-66
2023/01/11 07:50:32;;;;;;;4.18;1.90;;;;;;;3.60;100.00;93896.09;5050089;28;20846;-67
2023/01/11 07:52:59;;;;;;;5.60;2.67;;;;;;;3.77;100.00;93892.00;5051481;28;20037;-67
2023/01/11 07:55:25;;;;;;;4.50;1.80;;;;;;;3.84;100.00;93895.94;5050523;28;20040;-66
2023/01/11 07:57:55;;;;;;;4.93;2.20;;;;;;;3.93;100.00;93889.06;5051066;28;20056;-66
2023/01/11 08:00:23;;;;;;;6.13;2.30;;;;;;;3.96;100.00;93880.19;5050325;28;20041;-66
2023/01/11 08:02:51;;;;;;;4.72;2.17;;;;;;;3.94;100.00;93884.41;5038012;28;20094;-68
2023/01/11 08:05:19;;;;;;;4.70;2.42;;;;;;;3.94;100.00;93882.47;5050524;28;20051;-65
2023/01/11 08:07:46;;;;;;;4.97;2.20;;;;;;;3.97;100.00;93891.81;5051024;28;20041;-66
2023/01/11 08:10:13;;;;;;;5.68;2.10;;;;;;;4.01;100.00;93887.19;5049794;28;20051;-66
2023/01/11 08:15:30;;;;;;;4.10;2.10;;;;;;;4.14;100.00;93912.91;5050151;28;20060;-66
2023/01/11 08:17:57;;;;;;;6.03;2.10;;;;;;;4.19;100.00;93901.69;5050974;28;20049;-67
2023/01/11 08:20:25;;;;;;;5.13;2.30;;;;;;;4.24;100.00;93911.44;5050279;28;20520;-67
2023/01/11 08:22:52;;;;;;;4.13;1.85;;;;;;;4.33;100.00;93916.56;5051046;28;20049;-68
2023/01/11 08:25:19;;;;;;;5.53;2.15;;;;;;;4.38;100.00;93906.13;5049966;28;20068;-66
2023/01/11 08:27:46;;;;;;;6.40;2.30;;;;;;;4.53;100.00;93907.03;5050450;28;20049;-67
2023/01/11 08:30:13;;;;;;;4.35;1.77;;;;;;;4.65;100.00;93908.66;5050126;28;20049;-67
2023/01/11 08:32:40;;;;;;;3.53;1.63;;;;;;;4.58;100.00;93906.66;5049253;28;20049;-68
2023/01/11 08:35:07;;;;;;;4.15;1.88;;;;;;;4.61;100.00;93897.00;5050150;28;20417;-67
2023/01/11 08:37:33;;;;;;;4.65;1.70;;;;;;;4.56;100.00;93905.47;5032780;28;20098;-68
2023/01/11 08:40:00;;;;;;;4.03;1.67;;;;;;;4.67;100.00;93897.38;5049300;28;20057;-68
2023/01/11 08:42:27;;;;;;;4.63;1.67;;;;;;;4.85;100.00;93900.22;5049913;28;20409;-68
2023/01/11 08:44:54;;;;;;;4.43;2.20;;;;;;;4.84;100.00;93898.69;5050110;28;20045;-68
2023/01/11 08:47:21;;;;;;;6.18;2.70;;;;;;;4.87;100.00;93903.34;5049198;28;20117;-68
2023/01/11 08:49:48;;;;;;;4.97;2.58;;;;;;;4.76;100.00;93904.06;5050183;28;20489;-68
2023/01/11 08:52:15;;;;;;;4.47;2.20;;;;;;;4.78;100.00;93900.97;5049215;28;20094;-68
2023/01/11 08:54:42;;;;;;;5.20;2.88;;;;;;;4.71;100.00;93907.16;5050240;28;20044;-68
2023/01/11 08:57:09;;;;;;;7.73;2.27;;;;;;;4.68;100.00;93901.69;5031532;28;20059;-68
2023/01/11 08:59:36;;;;;;;4.30;2.10;;;;;;;4.79;100.00;93897.88;5050450;28;20049;-68
2023/01/11 09:02:04;;;;;;;5.30;2.30;;;;;;;4.94;100.00;93909.59;5032308;28;20075;-68
2023/01/11 09:04:32;;;;;;;4.20;1.52;;;;;;;4.93;100.00;93909.97;5036571;28;20381;-68
2023/01/11 09:07:00;;;;;;;4.05;1.50;;;;;;;5.06;100.00;93916.69;5049837;28;20107;-68
2023/01/11 09:09:27;;;;;;;5.70;1.70;;;;;;;5.10;100.00;93914.75;5049776;28;20037;-68
2023/01/11 09:11:55;;;;;;;4.45;2.05;;;;;;;5.20;100.00;93918.69;5049724;28;20051;-67
2023/01/11 09:14:24;;;;;;;5.35;2.42;;;;;;;5.25;100.00;93920.25;5049394;28;20036;-67
2023/01/11 09:16:52;;;;;;;6.30;3.20;;;;;;;5.36;100.00;93918.38;5049797;28;20049;-68
2023/01/11 09:19:20;;;;;;;7.28;3.45;;;;;;;5.39;100.00;93914.88;5049390;28;20041;-68
2023/01/11 09:21:47;;;;;;;5.77;2.10;;;;;;;5.42;100.00;93916.84;5053035;28;20110;-69
2023/01/11 09:24:13;;;;;;;6.65;1.83;;;;;;;5.52;100.00;93926.22;5055631;28;20040;-68
2023/01/11 09:26:42;;;;;;;3.30;1.70;;;;;;;5.56;100.00;93913.41;5059243;28;20045;-66
2023/01/11 09:29:09;;;;;;;5.22;2.10;;;;;;;5.68;100.00;93915.78;5056128;28;20047;-66
2023/01/11 09:31:36;;;;;;;4.00;1.90;;;;;;;5.65;100.00;93915.78;5030099;28;20056;-66
2023/01/11 09:34:05;;;;;;;6.47;2.33;;;;;;;5.82;100.00;93914.28;5052191;28;20048;-67
2023/01/11 09:36:34;;;;;;;4.15;1.70;;;;;;;5.87;100.00;93925.56;5052572;28;20877;-67
2023/01/11 09:39:06;;;;;;;7.30;1.60;;;;;;;5.83;100.00;93919.31;5053645;28;20053;-67
2023/01/11 09:41:36;;;;;;;3.33;1.50;;;;;;;5.65;100.00;93924.72;5052473;28;20952;-67
2023/01/11 09:44:15;;;;;;;5.28;2.30;;;;;;;5.54;100.00;93924.69;5053697;28;20052;-67
2023/01/11 09:46:47;;;;;;;5.80;2.20;;;;;;;5.65;100.00;93915.78;5052804;28;20749;-67
2023/01/11 09:49:19;;;;;;;4.85;1.80;;;;;;;5.66;100.00;93928.22;5051860;28;20045;-67
2023/01/11 09:51:46;;;;;;;2.95;1.50;;;;;;;5.59;100.00;93927.03;5053019;28;20057;-67
2023/01/11 09:54:17;;;;;;;4.68;2.30;;;;;;;5.49;100.00;93927.00;5052914;28;20463;-68
2023/01/11 09:57:27;;;;;;;3.45;1.70;;;;;;;5.50;100.00;93929.34;5053649;28;20047;-67
2023/01/11 10:00:13;;;;;;;4.80;1.90;;;;;;;5.59;100.00;93920.81;5039095;28;20859;-68
2023/01/11 10:03:03;;;;;;;3.97;2.00;;;;;;;5.67;100.00;93916.16;5052320;28;20401;-66
2023/01/11 10:05:48;;;;;;;3.60;1.60;;;;;;;5.78;100.00;93927.88;5052938;28;20040;-67
2023/01/11 10:08:37;;;;;;;3.55;1.55;;;;;;;5.86;100.00;93926.75;5052777;28;20475;-66
2023/01/11 10:11:48;;;;;;;3.67;1.50;;;;;;;5.88;100.00;93924.41;5040921;28;20049;-66
2023/01/11 10:14:56;;;;;;;3.60;1.60;;;;;;;5.92;100.00;93918.97;5052313;28;20048;-67
2023/01/11 10:18:16;;;;;;;3.45;1.80;;;;;;;5.89;100.00;93919.72;5052468;28;20401;-67
2023/01/11 10:21:13;;;;;;;4.07;1.95;;;;;;;5.98;100.00;93912.00;5051858;28;20398;-67
2023/01/11 10:23:49;;;;;;;3.60;1.35;;;;;;;6.11;100.00;93906.97;5052124;28;20052;-67
2023/01/11 10:26:28;;;;;;;4.70;1.60;;;;;;;6.19;100.00;93905.81;5051648;28;20456;-67
2023/01/11 10:29:20;;;;;;;4.03;1.43;;;;;;;6.14;100.00;93892.59;5052812;28;20047;-66
2023/01/11 10:32:32;;;;;;;4.47;1.40;;;;;;;6.27;100.00;93904.66;5051681;28;21586;-67
2023/01/11 10:35:32;;;;;;;3.78;1.52;;;;;;;6.45;100.00;93892.97;5051872;28;20433;-67
2023/01/11 10:38:57;;;;;;;2.92;1.50;;;;;;;6.41;100.00;93895.69;5051716;28;20907;-67
2023/01/11 10:41:13;;;;;;;3.05;1.50;;;;;;;6.48;100.00;93886.72;5044671;28;20053;-67
2023/01/11 10:43:44;;;;;;;3.10;1.30;;;;;;;6.45;100.00;93888.31;5051687;28;20753;-67
2023/01/11 10:46:22;;;;;;;4.35;1.70;;;;;;;6.44;100.00;93891.41;5052105;28;20049;-66
2023/01/11 10:48:56;;;;;;;4.63;2.08;;;;;;;6.40;100.00;93878.56;5052245;28;20033;-67
2023/01/11 10:51:31;;;;;;;4.10;1.90;;;;;;;6.62;100.00;93877.78;5033298;28;20048;-67
2023/01/11 10:54:15;;;;;;;4.60;2.10;;;;;;;6.81;100.00;93880.09;5052090;28;20386;-67
2023/01/11 10:57:07;;;;;;;5.33;1.87;;;;;;;6.93;100.00;93874.22;5051280;28;20711;-66
2023/01/11 11:00:09;;;;;;;3.03;1.70;;;;;;;6.89;100.00;93872.69;5051470;28;20945;-66
2023/01/11 11:02:58;;;;;;;3.17;1.38;;;;;;;7.17;100.00;93866.38;5051382;28;20045;-67
2023/01/11 11:05:49;;;;;;;3.75;1.20;;;;;;;7.15;100.00;93871.44;5051406;28;20041;-67
2023/01/11 11:08:26;;;;;;;4.95;2.25;;;;;;;7.16;100.00;93868.34;5051522;28;20041;-67
2023/01/11 11:11:02;;;;;;;2.57;1.20;;;;;;;7.32;100.00;93869.81;5052294;28;20094;-67
2023/01/11 11:13:43;;;;;;;8.35;4.07;;;;;;;7.25;100.00;93867.91;5051626;28;20554;-67
2023/01/11 11:16:22;;;;;;;6.97;2.70;;;;;;;7.04;100.00;93857.81;5051665;28;20049;-66
2023/01/11 11:18:57;;;;;;;5.82;2.38;;;;;;;7.01;100.00;93853.16;5051978;28;20045;-67
2023/01/11 11:21:37;;;;;;;6.97;2.85;;;;;;;6.99;100.00;93856.28;5051375;28;20064;-67
2023/01/11 11:24:18;;;;;;;5.80;2.27;;;;;;;6.98;100.00;93856.66;5051993;28;20102;-67
2023/01/11 11:26:53;;;;;;;7.10;3.10;;;;;;;7.06;100.00;93849.25;5050580;28;20040;-67
2023/01/11 11:29:22;;;;;;;5.10;3.00;;;;;;;7.02;100.00;93846.53;5050699;28;20090;-67
2023/01/11 11:31:49;;;;;;;3.25;1.65;;;;;;;6.98;100.00;93853.94;5051636;28;20109;-67
2023/01/11 11:34:21;;;;;;;5.80;2.40;;;;;;;6.93;100.00;93846.94;5050747;28;20098;-67
2023/01/11 11:36:50;;;;;;;3.97;1.80;;;;;;;7.12;100.00;93853.94;5051408;28;20155;-68
2023/01/11 11:39:19;;;;;;;4.13;1.80;;;;;;;7.06;100.00;93847.28;5050958;28;20094;-67
2023/01/11 11:41:51;;;;;;;3.70;1.70;;;;;;;7.06;100.00;93839.09;5051098;28;20053;-67
2023/01/11 11:44:27;;;;;;;3.70;1.30;;;;;;;7.06;100.00;93839.09;5049712;28;20052;-67
2023/01/11 11:47:20;;;;;;;3.22;1.67;;;;;;;6.85;100.00;93831.78;5051329;28;20051;-67
2023/01/11 11:49:46;;;;;;;2.73;1.40;;;;;;;6.86;100.00;93830.63;5048479;28;20413;-67
2023/01/11 11:52:16;;;;;;;4.10;1.65;;;;;;;6.75;100.00;93819.72;5049530;28;20128;-66
2023/01/11 11:54:55;;;;;;;3.17;1.67;;;;;;;6.76;100.00;93815.81;5051071;28;20210;-66
2023/01/11 11:57:37;;;;;;;3.38;1.60;;;;;;;6.70;100.00;93822.84;5047873;28;20052;-66
2023/01/11 12:00:24;;;;;;;4.50;2.03;;;;;;;6.49;100.00;93822.88;5051194;28;20067;-67
2023/01/11 12:02:58;;;;;;;3.00;1.60;;;;;;;6.50;100.00;93829.88;5050529;28;20049;-67
2023/01/11 12:05:25;;;;;;;3.90;1.80;;;;;;;6.54;100.00;93823.25;5049871;28;20101;-68
2023/01/11 12:07:53;;;;;;;4.13;1.92;;;;;;;6.66;100.00;93822.09;5051093;28;20040;-68
2023/01/11 12:10:24;;;;;;;4.97;2.00;;;;;;;6.40;100.00;93828.75;5050106;28;20041;-67
2023/01/11 12:12:57;;;;;;;3.35;1.60;;;;;;;6.34;100.00;93820.16;5033203;28;20057;-68
2023/01/11 12:15:29;;;;;;;3.93;1.60;;;;;;;6.44;100.00;93812.34;5050042;28;20098;-67
2023/01/11 12:18:17;;;;;;;2.95;1.35;;;;;;;6.34;100.00;93819.41;5050735;28;20039;-68